createdAt,value
2023-01-29T00:02:01.077Z,58.49
2023-01-29T00:05:25.555Z,58.48
2023-01-29T00:08:29.435Z,58.16
2023-01-29T00:11:33.390Z,58.75
2023-01-29T00:14:37.209Z,59.14
2023-01-29T00:17:41.294Z,59.19
2023-01-29T00:20:45.281Z,59.89
2023-01-29T00:23:49.363Z,58.68
2023-01-29T00:26:53.338Z,59.13
2023-01-29T00:29:57.420Z,59.74
2023-01-29T00:33:01.670Z,58.40
2023-01-29T00:36:05.628Z,58.85
2023-01-29T00:39:09.506Z,58.05
2023-01-29T00:42:13.953Z,58.64
2023-01-29T00:45:17.806Z,58.73
2023-01-29T00:48:21.804Z,58.76
2023-01-29T00:51:25.929Z,57.71
2023-01-29T00:54:31.409Z,58.06
2023-01-29T00:57:36.805Z,57.85
2023-01-29T01:00:40.890Z,58.32
2023-01-29T01:03:44.866Z,57.40
2023-01-29T01:06:48.874Z,58.81
2023-01-29T01:09:52.857Z,58.07
2023-01-29T01:12:56.610Z,58.79
2023-01-29T01:16:00.494Z,58.11
2023-01-29T01:19:04.369Z,58.70
2023-01-29T01:22:08.352Z,58.31
2023-01-29T01:25:12.270Z,57.46
2023-01-29T01:28:16.131Z,57.90
2023-01-29T01:31:20.160Z,57.54
2023-01-29T01:34:24.117Z,58.32
2023-01-29T01:37:28.236Z,59.66
2023-01-29T01:40:32.165Z,60.56
2023-01-29T01:43:36.273Z,59.28
2023-01-29T01:46:40.404Z,58.70
2023-01-29T01:49:44.287Z,58.81
2023-01-29T01:52:48.315Z,59.14
2023-01-29T01:55:52.260Z,59.83
2023-01-29T01:58:56.392Z,59.21
2023-01-29T02:02:00.523Z,59.64
2023-01-29T02:05:04.455Z,58.69
2023-01-29T02:08:08.450Z,58.41
2023-01-29T02:11:12.274Z,57.86
2023-01-29T02:14:16.335Z,58.68
2023-01-29T02:17:20.261Z,58.98
2023-01-29T02:20:24.048Z,59.52
2023-01-29T02:23:31.243Z,59.34
2023-01-29T02:26:35.172Z,58.70
2023-01-29T02:29:39.409Z,58.09
2023-01-29T02:32:43.562Z,57.49
2023-01-29T02:35:47.361Z,58.31
2023-01-29T02:38:51.183Z,57.74
2023-01-29T02:41:55.316Z,59.24
2023-01-29T02:44:59.542Z,60.26
2023-01-29T02:48:03.603Z,58.82
2023-01-29T02:51:07.473Z,58.90
2023-01-29T02:54:11.571Z,58.72
2023-01-29T02:57:15.698Z,58.48
2023-01-29T03:00:19.701Z,59.24
2023-01-29T03:03:23.561Z,60.32
2023-01-29T03:06:27.438Z,59.37
2023-01-29T03:09:31.349Z,58.18
2023-01-29T03:12:35.444Z,58.99
2023-01-29T03:15:39.200Z,58.72
2023-01-29T03:18:42.934Z,57.58
2023-01-29T03:21:46.772Z,58.27
2023-01-29T03:24:50.882Z,58.51
2023-01-29T03:27:55.033Z,59.10
2023-01-29T03:30:59.042Z,58.03
2023-01-29T03:34:02.932Z,58.47
2023-01-29T03:37:06.865Z,59.32
2023-01-29T03:40:11.060Z,57.35
2023-01-29T03:43:15.053Z,59.13
2023-01-29T03:46:19.036Z,58.14
2023-01-29T03:49:22.989Z,57.05
2023-01-29T03:52:26.983Z,57.36
2023-01-29T03:55:31.230Z,57.93
2023-01-29T03:58:35.265Z,58.20
2023-01-29T04:01:39.285Z,57.79
2023-01-29T04:04:42.924Z,58.47
2023-01-29T04:07:46.877Z,58.50
2023-01-29T04:10:50.878Z,59.08
2023-01-29T04:13:57.699Z,58.66
2023-01-29T04:17:01.714Z,59.34
2023-01-29T04:20:05.596Z,58.08
2023-01-29T04:23:09.577Z,58.86
2023-01-29T04:26:13.763Z,58.78
2023-01-29T04:29:17.676Z,58.15
2023-01-29T04:32:21.508Z,56.48
2023-01-29T04:35:25.440Z,57.82
2023-01-29T04:38:29.706Z,57.59
2023-01-29T04:41:33.555Z,56.75
2023-01-29T04:44:37.449Z,56.65
2023-01-29T04:47:41.575Z,57.54
2023-01-29T04:50:45.583Z,58.15
2023-01-29T04:53:49.449Z,56.89
2023-01-29T04:56:53.270Z,56.91
2023-01-29T04:59:57.231Z,58.31
2023-01-29T05:03:01.334Z,59.20
2023-01-29T05:06:05.386Z,58.10
2023-01-29T05:09:09.292Z,59.58
2023-01-29T05:12:13.155Z,56.74
2023-01-29T05:15:17.269Z,56.65
2023-01-29T05:18:21.529Z,56.08
2023-01-29T05:21:25.523Z,57.36
2023-01-29T05:24:29.510Z,55.80
2023-01-29T05:27:33.504Z,55.14
2023-01-29T05:30:37.588Z,56.17
2023-01-29T05:33:41.431Z,56.48
2023-01-29T05:36:45.430Z,55.43
2023-01-29T05:39:49.334Z,56.16
2023-01-29T05:42:53.333Z,55.22
2023-01-29T05:45:57.391Z,55.09
2023-01-29T05:49:01.290Z,56.20
2023-01-29T05:52:05.229Z,56.37
2023-01-29T05:55:09.361Z,55.36
2023-01-29T05:58:13.426Z,55.79
2023-01-29T06:01:17.576Z,55.83
2023-01-29T06:04:21.578Z,56.20
2023-01-29T06:07:25.455Z,56.85
2023-01-29T06:10:29.568Z,55.20
2023-01-29T06:13:33.672Z,54.80
2023-01-29T06:16:37.747Z,55.11
2023-01-29T06:19:41.656Z,54.75
2023-01-29T06:22:45.424Z,53.97
2023-01-29T06:25:49.408Z,54.39
2023-01-29T06:28:53.246Z,55.26
2023-01-29T06:31:57.034Z,55.67
2023-01-29T06:35:00.806Z,54.67
2023-01-29T06:38:04.797Z,54.45
2023-01-29T06:41:08.721Z,55.71
2023-01-29T06:44:12.673Z,56.53
2023-01-29T06:47:16.532Z,57.26
2023-01-29T06:50:20.716Z,56.44
2023-01-29T06:53:24.975Z,56.46
2023-01-29T06:56:29.216Z,55.70
2023-01-29T06:59:33.213Z,55.87
2023-01-29T07:02:37.073Z,55.35
2023-01-29T07:05:41.200Z,56.15
2023-01-29T07:08:45.230Z,57.04
2023-01-29T07:11:49.323Z,58.20
2023-01-29T07:14:53.124Z,58.08
2023-01-29T07:17:57.163Z,57.55
2023-01-29T07:21:04.167Z,56.10
2023-01-29T07:24:08.296Z,56.93
2023-01-29T07:27:12.269Z,56.41
2023-01-29T07:30:16.540Z,57.29
2023-01-29T07:33:20.757Z,56.78
2023-01-29T07:36:24.949Z,56.30
2023-01-29T07:39:29.223Z,55.31
2023-01-29T07:42:33.092Z,54.31
2023-01-29T07:45:37.053Z,53.04
2023-01-29T07:48:41.028Z,53.42
2023-01-29T07:51:45.262Z,53.51
2023-01-29T07:54:49.234Z,54.13
2023-01-29T07:57:53.163Z,53.57
2023-01-29T08:00:57.132Z,53.88
2023-01-29T08:04:01.173Z,54.02
2023-01-29T08:07:05.219Z,53.99
2023-01-29T08:10:09.383Z,52.09
2023-01-29T08:13:13.451Z,52.50
2023-01-29T08:16:19.371Z,52.04
2023-01-29T08:19:23.401Z,50.96
2023-01-29T08:22:27.475Z,52.52
2023-01-29T08:25:31.696Z,53.29
2023-01-29T08:28:35.607Z,54.17
2023-01-29T08:31:39.748Z,54.19
2023-01-29T08:34:43.719Z,53.58
2023-01-29T08:37:47.856Z,54.72
2023-01-29T08:40:51.700Z,54.34
2023-01-29T08:43:55.423Z,57.18
2023-01-29T08:46:59.575Z,57.42
2023-01-29T08:50:03.608Z,56.50
2023-01-29T08:53:07.629Z,56.45
2023-01-29T08:56:11.638Z,56.52
2023-01-29T08:59:15.610Z,57.18
2023-01-29T09:02:19.989Z,56.65
2023-01-29T09:05:24.025Z,54.93
2023-01-29T09:08:28.209Z,54.07
2023-01-29T09:11:32.047Z,54.20
2023-01-29T09:14:36.215Z,53.46
2023-01-29T09:17:40.613Z,53.46
2023-01-29T09:20:44.810Z,52.45
2023-01-29T09:23:48.575Z,52.74
2023-01-29T09:26:52.455Z,51.81
2023-01-29T09:29:56.410Z,52.52
2023-01-29T09:33:00.476Z,52.80
2023-01-29T09:36:04.430Z,52.41
2023-01-29T09:39:08.156Z,52.92
2023-01-29T09:42:12.201Z,52.36
2023-01-29T09:45:16.767Z,51.65
2023-01-29T09:48:21.070Z,51.51
2023-01-29T09:51:25.191Z,52.07
2023-01-29T09:54:29.234Z,51.86
2023-01-29T09:57:33.468Z,52.06
2023-01-29T10:00:37.462Z,51.77
2023-01-29T10:03:41.631Z,53.08
2023-01-29T10:06:45.639Z,54.09
2023-01-29T10:09:49.663Z,54.68
2023-01-29T10:12:53.964Z,53.79
2023-01-29T10:15:58.001Z,52.21
2023-01-29T10:19:01.994Z,51.55
2023-01-29T10:22:05.859Z,53.15
2023-01-29T10:25:09.963Z,53.75
2023-01-29T10:28:14.101Z,51.76
2023-01-29T10:31:18.252Z,51.66
2023-01-29T10:34:22.462Z,51.97
2023-01-29T10:37:26.427Z,51.72
2023-01-29T10:40:30.491Z,51.21
2023-01-29T10:43:34.717Z,51.68
2023-01-29T10:46:38.698Z,51.47
2023-01-29T10:49:42.454Z,51.07
2023-01-29T10:52:46.390Z,51.72
2023-01-29T10:55:50.727Z,52.12
2023-01-29T10:58:54.724Z,50.89
2023-01-29T11:01:59.106Z,50.91
2023-01-29T11:05:03.221Z,50.79
2023-01-29T11:08:07.145Z,50.11
2023-01-29T11:11:14.316Z,50.60
2023-01-29T11:14:18.054Z,49.99
2023-01-29T11:17:22.364Z,50.12
2023-01-29T11:20:26.664Z,49.13
2023-01-29T11:23:31.306Z,50.14
2023-01-29T11:26:35.331Z,49.06
2023-01-29T11:29:39.681Z,48.72
2023-01-29T11:32:44.064Z,48.81
2023-01-29T11:35:47.618Z,48.22
2023-01-29T11:38:51.710Z,48.27
2023-01-29T11:41:56.024Z,47.85
2023-01-29T11:45:00.279Z,47.15
2023-01-29T11:48:04.263Z,48.12
2023-01-29T11:51:08.061Z,47.54
2023-01-29T11:54:12.000Z,46.86
2023-01-29T11:57:16.536Z,47.15
2023-01-29T12:00:21.319Z,46.66
2023-01-29T12:03:25.282Z,46.24
2023-01-29T12:06:29.087Z,44.68
2023-01-29T12:09:33.203Z,45.48
2023-01-29T12:12:37.026Z,46.27
2023-01-29T12:15:41.141Z,46.30
2023-01-29T12:18:45.050Z,45.71
2023-01-29T12:21:48.967Z,45.72
2023-01-29T12:24:53.417Z,45.94
2023-01-29T12:27:57.433Z,46.04
2023-01-29T12:31:04.469Z,45.97
2023-01-29T12:34:09.350Z,45.66
2023-01-29T12:37:13.223Z,45.45
2023-01-29T12:40:17.683Z,45.65
2023-01-29T12:43:22.062Z,45.82
2023-01-29T12:46:26.377Z,45.84
2023-01-29T12:49:31.594Z,45.32
2023-01-29T12:52:35.559Z,45.86
2023-01-29T12:55:39.605Z,45.92
2023-01-29T12:58:43.609Z,45.30
2023-01-29T13:01:47.670Z,44.45
2023-01-29T13:04:51.588Z,44.91
2023-01-29T13:07:55.514Z,43.86
2023-01-29T13:10:59.765Z,43.86
2023-01-29T13:14:03.850Z,44.42
2023-01-29T13:17:07.772Z,45.19
2023-01-29T13:20:11.938Z,44.64
2023-01-29T13:23:15.882Z,44.72
2023-01-29T13:26:20.053Z,44.83
2023-01-29T13:29:24.184Z,44.66
2023-01-29T13:32:28.459Z,45.48
2023-01-29T13:35:33.414Z,44.46
2023-01-29T13:38:37.626Z,44.69
2023-01-29T13:41:41.886Z,45.00
2023-01-29T13:44:46.160Z,44.70
2023-01-29T13:47:50.051Z,45.61
2023-01-29T13:50:54.085Z,45.24
2023-01-29T13:53:58.372Z,45.04
2023-01-29T13:57:02.377Z,44.90
2023-01-29T14:00:06.591Z,44.71
2023-01-29T14:03:10.355Z,45.48
2023-01-29T14:06:14.467Z,44.22
2023-01-29T14:09:18.622Z,45.08
2023-01-29T14:12:24.508Z,44.57
2023-01-29T14:15:28.465Z,44.84
2023-01-29T14:18:32.559Z,45.93
2023-01-29T14:21:36.690Z,46.35
2023-01-29T14:24:40.664Z,45.73
2023-01-29T14:27:44.734Z,46.31
2023-01-29T14:30:48.971Z,46.36
2023-01-29T14:33:52.906Z,46.36
2023-01-29T14:36:57.071Z,46.59
2023-01-29T14:40:01.394Z,48.56
2023-01-29T14:43:05.709Z,48.18
2023-01-29T14:46:09.655Z,48.74
2023-01-29T14:49:13.755Z,49.12
2023-01-29T14:52:17.794Z,49.69
2023-01-29T14:55:21.998Z,49.60
2023-01-29T14:58:25.802Z,49.27
2023-01-29T15:01:30.013Z,49.76
2023-01-29T15:04:33.964Z,50.54
2023-01-29T15:07:38.276Z,49.79
2023-01-29T15:10:42.386Z,49.42
2023-01-29T15:13:46.179Z,50.09
2023-01-29T15:16:50.297Z,51.83
2023-01-29T15:19:54.023Z,50.37
2023-01-29T15:22:58.291Z,49.91
2023-01-29T15:26:02.134Z,50.04
2023-01-29T15:29:06.044Z,50.12
2023-01-29T15:32:09.752Z,49.44
2023-01-29T15:35:13.998Z,49.59
2023-01-29T15:38:17.661Z,49.92
2023-01-29T15:41:21.401Z,49.69
2023-01-29T15:44:25.153Z,49.45
2023-01-29T15:47:29.266Z,48.97
2023-01-29T15:50:33.481Z,49.44
2023-01-29T15:53:37.348Z,50.36
2023-01-29T15:56:41.197Z,50.10
2023-01-29T15:59:47.670Z,49.40
2023-01-29T16:02:51.582Z,50.86
2023-01-29T16:05:55.742Z,50.27
2023-01-29T16:08:59.812Z,49.54
2023-01-29T16:12:03.778Z,48.75
2023-01-29T16:18:29.978Z,50.17
2023-01-29T16:21:33.882Z,50.44
2023-01-29T16:24:37.938Z,51.12
2023-01-29T16:27:41.868Z,50.66
2023-01-29T16:30:45.695Z,50.42
2023-01-29T16:33:49.485Z,50.20
2023-01-29T16:36:54.401Z,51.02
2023-01-29T16:39:58.398Z,51.48
2023-01-29T16:43:02.384Z,51.63
2023-01-29T16:46:06.016Z,51.70
2023-01-29T16:49:10.317Z,52.05
2023-01-29T16:52:14.241Z,52.39
2023-01-29T16:55:18.728Z,51.79
2023-01-29T16:58:25.130Z,52.95
2023-01-29T17:01:29.917Z,55.76
2023-01-29T17:04:34.021Z,56.42
2023-01-29T17:07:38.110Z,57.10
2023-01-29T17:10:41.901Z,58.21
2023-01-29T17:13:45.576Z,58.32
2023-01-29T17:16:49.857Z,58.21
2023-01-29T17:19:54.054Z,58.90
2023-01-29T17:22:58.202Z,58.96
2023-01-29T17:26:02.313Z,59.67
2023-01-29T17:29:06.510Z,57.92
2023-01-29T17:32:10.820Z,57.58
2023-01-29T17:35:15.376Z,55.32
2023-01-29T17:38:26.495Z,55.91
2023-01-29T17:41:31.111Z,58.21
2023-01-29T17:44:35.466Z,57.15
2023-01-29T17:47:39.664Z,55.06
2023-01-29T17:50:43.582Z,54.76
2023-01-29T17:53:47.908Z,54.12
2023-01-29T17:56:51.890Z,54.49
2023-01-29T17:59:55.872Z,55.31
2023-01-29T18:03:00.025Z,56.33
2023-01-29T18:06:03.990Z,55.44
2023-01-29T18:09:08.249Z,54.91
2023-01-29T18:12:12.083Z,55.49
2023-01-29T18:15:16.378Z,56.63
2023-01-29T18:18:20.215Z,57.12
2023-01-29T18:21:24.253Z,58.42
2023-01-29T18:24:31.335Z,59.16
2023-01-29T18:27:35.433Z,60.10
2023-01-29T18:30:39.450Z,60.93
2023-01-29T18:33:43.483Z,60.50
2023-01-29T18:36:47.430Z,58.85
2023-01-29T18:39:51.552Z,59.82
2023-01-29T18:42:55.535Z,59.68
2023-01-29T18:45:59.487Z,59.36
2023-01-29T18:49:03.466Z,60.39
2023-01-29T18:52:07.551Z,59.83
2023-01-29T18:55:11.687Z,57.71
2023-01-29T18:58:26.870Z,60.04
2023-01-29T19:01:37.754Z,60.06
2023-01-29T19:04:41.551Z,60.67
2023-01-29T19:07:46.836Z,62.45
2023-01-29T19:10:50.961Z,60.66
2023-01-29T19:13:55.007Z,60.82
2023-01-29T19:16:58.956Z,61.52
2023-01-29T19:20:02.925Z,60.18
2023-01-29T19:23:06.701Z,58.94
2023-01-29T19:26:10.854Z,60.39
2023-01-29T19:29:16.564Z,61.50
2023-01-29T19:32:20.391Z,62.35
2023-01-29T19:35:24.344Z,62.65
2023-01-29T19:38:28.271Z,63.20
2023-01-29T19:41:32.470Z,63.84
2023-01-29T19:44:36.586Z,63.66
2023-01-29T19:47:40.506Z,64.38
2023-01-29T19:50:44.583Z,63.37
2023-01-29T19:53:48.751Z,63.28
2023-01-29T19:56:52.616Z,63.55
2023-01-29T19:59:56.355Z,64.02
2023-01-29T20:03:00.344Z,64.63
2023-01-29T20:06:04.557Z,64.67
2023-01-29T20:09:08.635Z,63.49
2023-01-29T20:12:12.804Z,64.31
2023-01-29T20:15:16.941Z,65.22
2023-01-29T20:18:20.933Z,64.46
2023-01-29T20:21:25.146Z,64.47
2023-01-29T20:24:29.163Z,64.54
2023-01-29T20:27:33.182Z,64.60
2023-01-29T20:30:37.155Z,65.55
2023-01-29T20:33:42.262Z,64.38
2023-01-29T20:36:45.986Z,63.33
2023-01-29T20:39:49.925Z,63.68
2023-01-29T20:42:53.839Z,65.02
2023-01-29T20:45:58.102Z,65.52
2023-01-29T20:49:02.179Z,65.11
2023-01-29T20:52:06.144Z,64.58
2023-01-29T20:55:10.101Z,63.04
2023-01-29T20:58:14.291Z,62.80
2023-01-29T21:01:18.522Z,62.18
2023-01-29T21:04:22.508Z,61.87
2023-01-29T21:07:26.466Z,62.42
2023-01-29T21:10:30.336Z,64.47
2023-01-29T21:13:34.422Z,64.33
2023-01-29T21:16:38.421Z,63.21
2023-01-29T21:19:42.390Z,62.85
2023-01-29T21:22:46.311Z,63.38
2023-01-29T21:25:50.206Z,61.57
2023-01-29T21:28:54.471Z,62.67
2023-01-29T21:31:58.481Z,63.92
2023-01-29T21:35:02.464Z,62.57
2023-01-29T21:38:06.387Z,63.15
2023-01-29T21:41:10.525Z,63.25
2023-01-29T21:44:14.559Z,62.61
2023-01-29T21:47:18.489Z,64.57
2023-01-29T21:50:22.588Z,65.08
2023-01-29T21:53:26.621Z,64.97
2023-01-29T21:56:30.719Z,65.17
2023-01-29T21:59:34.684Z,64.33
2023-01-29T22:02:38.797Z,63.71
2023-01-29T22:05:42.380Z,65.77
2023-01-29T22:08:46.424Z,66.05
2023-01-29T22:11:50.467Z,67.34
2023-01-29T22:14:54.495Z,67.06
2023-01-29T22:17:58.449Z,65.84
2023-01-29T22:21:02.609Z,67.52
2023-01-29T22:24:06.569Z,68.25
2023-01-29T22:27:10.673Z,67.58
2023-01-29T22:30:15.736Z,66.54
2023-01-29T22:33:19.516Z,65.15
2023-01-29T22:36:23.516Z,63.38
2023-01-29T22:39:27.739Z,62.19
2023-01-29T22:42:31.607Z,61.85
2023-01-29T22:45:35.332Z,61.90
2023-01-29T22:48:39.187Z,61.18
2023-01-29T22:51:43.234Z,60.08
2023-01-29T22:54:47.341Z,59.20
2023-01-29T22:57:51.159Z,60.10
2023-01-29T23:00:55.228Z,60.10
2023-01-29T23:03:59.305Z,60.19
2023-01-29T23:07:03.339Z,60.15
2023-01-29T23:10:07.408Z,61.12
2023-01-29T23:13:11.346Z,63.38
2023-01-29T23:16:15.252Z,63.82
2023-01-29T23:19:19.424Z,64.00
2023-01-29T23:22:23.469Z,64.47
2023-01-29T23:25:28.906Z,65.46
2023-01-29T23:28:33.089Z,65.04
2023-01-29T23:31:37.040Z,63.84
2023-01-29T23:34:43.229Z,62.41
2023-01-29T23:37:47.192Z,62.10
2023-01-29T23:40:51.234Z,62.60
2023-01-29T23:43:55.303Z,62.39
2023-01-29T23:46:59.406Z,63.19
2023-01-29T23:50:03.244Z,61.57
2023-01-29T23:53:07.429Z,61.06
2023-01-29T23:56:11.519Z,60.47
2023-01-29T23:59:15.678Z,60.49
